createdAt,value
2017-11-24T00:00:25.578Z,993.56
2017-11-24T00:01:31.353Z,993.53
2017-11-24T00:02:37.608Z,993.68
2017-11-24T00:03:44.372Z,993.56
2017-11-24T00:04:50.122Z,993.55
2017-11-24T00:05:56.542Z,993.47
2017-11-24T00:07:03.231Z,993.46
2017-11-24T00:08:09.023Z,993.43
2017-11-24T00:09:15.289Z,993.53
2017-11-24T00:10:21.609Z,993.35
2017-11-24T00:11:27.864Z,993.31
2017-11-24T00:12:34.180Z,993.40
2017-11-24T00:13:40.919Z,993.44
2017-11-24T00:14:46.876Z,993.46
2017-11-24T00:15:53.060Z,993.48
2017-11-24T00:16:59.485Z,993.49
2017-11-24T00:18:05.927Z,993.50
2017-11-24T00:19:11.924Z,993.55
2017-11-24T00:20:18.210Z,993.51
2017-11-24T00:21:24.499Z,993.44
2017-11-24T00:22:30.813Z,993.42
2017-11-24T00:23:37.157Z,993.56
2017-11-24T00:24:43.985Z,993.56
2017-11-24T00:25:50.258Z,993.62
2017-11-24T00:26:56.162Z,993.60
2017-11-24T00:28:02.517Z,993.65
2017-11-24T00:29:09.132Z,993.69
2017-11-24T00:30:15.025Z,993.65
2017-11-24T00:31:21.283Z,993.55
2017-11-24T00:32:28.660Z,993.59
2017-11-24T00:33:34.508Z,993.56
2017-11-24T00:34:40.285Z,993.56
2017-11-24T00:35:46.498Z,993.53
2017-11-24T00:36:52.959Z,993.47
2017-11-24T00:37:59.222Z,993.51
2017-11-24T00:39:05.475Z,993.59
2017-11-24T00:40:13.272Z,993.52
2017-11-24T00:41:17.918Z,993.51
2017-11-24T00:42:24.201Z,993.55
2017-11-24T00:43:30.530Z,993.45
2017-11-24T00:44:36.949Z,993.42
2017-11-24T00:45:43.107Z,993.42
2017-11-24T00:46:49.413Z,993.34
2017-11-24T00:47:55.765Z,993.51
2017-11-24T00:49:02.031Z,993.40
2017-11-24T00:50:08.323Z,993.50
2017-11-24T00:51:14.621Z,993.49
2017-11-24T00:52:20.967Z,993.52
2017-11-24T00:53:27.847Z,993.53
2017-11-24T00:54:33.536Z,993.53
2017-11-24T00:55:39.999Z,993.46
2017-11-24T00:56:46.145Z,993.54
2017-11-24T00:57:52.793Z,993.51
2017-11-24T00:58:58.862Z,993.51
2017-11-24T01:00:05.560Z,993.47
2017-11-24T01:01:11.401Z,993.47
2017-11-24T01:02:17.654Z,993.48
2017-11-24T01:03:24.611Z,993.55
2017-11-24T01:04:30.265Z,993.61
2017-11-24T01:05:37.206Z,993.54
2017-11-24T01:06:42.880Z,993.55
2017-11-24T01:07:49.233Z,993.61
2017-11-24T01:08:55.737Z,993.64
2017-11-24T01:10:02.351Z,993.63
2017-11-24T01:11:08.092Z,993.56
2017-11-24T01:12:14.961Z,993.52
2017-11-24T01:13:21.226Z,993.47
2017-11-24T01:14:26.991Z,993.54
2017-11-24T01:15:33.318Z,993.49
2017-11-24T01:16:39.739Z,993.48
2017-11-24T01:17:45.905Z,993.45
2017-11-24T01:18:52.364Z,993.41
2017-11-24T01:19:59.044Z,993.50
2017-11-24T01:21:04.887Z,993.38
2017-11-24T01:22:11.137Z,993.43
2017-11-24T01:23:17.429Z,993.42
2017-11-24T01:24:23.724Z,993.37
2017-11-24T01:25:30.016Z,993.41
2017-11-24T01:26:36.944Z,993.38
2017-11-24T01:27:42.863Z,993.48
2017-11-24T01:28:48.987Z,993.45
2017-11-24T01:29:55.736Z,993.58
2017-11-24T01:31:02.180Z,993.50
2017-11-24T01:32:07.906Z,993.49
2017-11-24T01:33:15.022Z,993.57
2017-11-24T01:34:20.436Z,993.50
2017-11-24T01:35:26.823Z,993.61
2017-11-24T01:36:33.035Z,993.55
2017-11-24T01:37:39.991Z,993.53
2017-11-24T01:38:45.653Z,993.53
2017-11-24T01:39:52.089Z,993.54
2017-11-24T01:40:58.262Z,993.56
2017-11-24T01:42:04.536Z,993.55
2017-11-24T01:43:11.407Z,993.49
2017-11-24T01:44:17.137Z,993.49
2017-11-24T01:45:23.497Z,993.49
2017-11-24T01:46:29.737Z,993.50
2017-11-24T01:47:36.029Z,993.51
2017-11-24T01:48:42.532Z,993.37
2017-11-24T01:49:48.622Z,993.32
2017-11-24T01:50:54.913Z,993.30
2017-11-24T01:52:01.729Z,993.27
2017-11-24T01:53:07.827Z,993.24
2017-11-24T01:54:14.336Z,993.21
2017-11-24T01:55:20.109Z,993.36
2017-11-24T01:56:26.434Z,993.41
2017-11-24T01:57:33.303Z,993.31
2017-11-24T01:58:39.745Z,993.32
2017-11-24T01:59:45.325Z,993.27
2017-11-24T02:00:51.637Z,993.38
2017-11-24T02:01:58.521Z,993.25
2017-11-24T02:03:04.981Z,993.22
2017-11-24T02:04:10.696Z,993.22
2017-11-24T02:05:16.875Z,993.18
2017-11-24T02:06:23.711Z,993.19
2017-11-24T02:07:30.070Z,993.22
2017-11-24T02:08:36.376Z,993.15
2017-11-24T02:09:42.185Z,993.13
2017-11-24T02:10:48.375Z,993.20
2017-11-24T02:11:54.764Z,993.11
2017-11-24T02:13:01.494Z,993.04
2017-11-24T02:14:07.836Z,993.07
2017-11-24T02:15:13.573Z,992.98
2017-11-24T02:16:20.510Z,993.08
2017-11-24T02:17:26.156Z,993.03
2017-11-24T02:18:32.558Z,993.05
2017-11-24T02:19:38.857Z,993.03
2017-11-24T02:20:45.090Z,992.98
2017-11-24T02:21:51.395Z,992.99
2017-11-24T02:22:57.686Z,992.86
2017-11-24T02:24:04.536Z,992.84
2017-11-24T02:25:10.766Z,992.80
2017-11-24T02:26:16.687Z,992.89
2017-11-24T02:27:22.965Z,992.89
2017-11-24T02:28:29.990Z,992.80
2017-11-24T02:29:35.486Z,992.81
2017-11-24T02:30:41.828Z,992.77
2017-11-24T02:31:48.160Z,992.78
2017-11-24T02:32:54.458Z,992.77
2017-11-24T02:34:01.306Z,992.81
2017-11-24T02:35:08.075Z,992.72
2017-11-24T02:36:13.816Z,992.71
2017-11-24T02:37:19.587Z,992.75
2017-11-24T02:38:25.931Z,992.75
2017-11-24T02:39:32.176Z,992.76
2017-11-24T02:40:38.598Z,992.69
2017-11-24T02:41:44.953Z,992.71
2017-11-24T02:42:51.133Z,992.67
2017-11-24T02:43:57.504Z,992.58
2017-11-24T02:45:03.691Z,992.59
2017-11-24T02:46:10.204Z,992.65
2017-11-24T02:47:16.947Z,992.68
2017-11-24T02:48:22.795Z,992.57
2017-11-24T02:49:29.547Z,992.65
2017-11-24T02:50:36.827Z,992.62
2017-11-24T02:51:41.645Z,992.64
2017-11-24T02:52:47.808Z,992.62
2017-11-24T02:53:54.377Z,992.55
2017-11-24T02:55:00.948Z,992.53
2017-11-24T02:56:06.792Z,992.42
2017-11-24T02:57:14.005Z,992.47
2017-11-24T02:58:19.580Z,992.47
2017-11-24T02:59:25.615Z,992.54
2017-11-24T03:00:31.912Z,992.52
2017-11-24T03:01:38.265Z,992.51
2017-11-24T03:02:44.522Z,992.42
2017-11-24T03:03:51.710Z,992.47
2017-11-24T03:04:57.643Z,992.54
2017-11-24T03:06:03.417Z,992.57
2017-11-24T03:07:09.743Z,992.55
2017-11-24T03:08:16.026Z,992.49
2017-11-24T03:09:22.334Z,992.61
2017-11-24T03:10:28.704Z,992.63
2017-11-24T03:11:34.914Z,992.64
2017-11-24T03:12:41.825Z,992.56
2017-11-24T03:13:47.543Z,992.64
2017-11-24T03:14:53.831Z,992.59
2017-11-24T03:16:00.177Z,992.52
2017-11-24T03:17:06.503Z,992.61
2017-11-24T03:18:12.856Z,992.57
2017-11-24T03:19:19.730Z,992.53
2017-11-24T03:20:25.467Z,992.54
2017-11-24T03:21:31.651Z,992.62
2017-11-24T03:22:37.928Z,992.55
2017-11-24T03:23:44.552Z,992.59
2017-11-24T03:24:50.539Z,992.50
2017-11-24T03:25:56.847Z,992.52
2017-11-24T03:27:03.298Z,992.50
2017-11-24T03:28:09.443Z,992.58
2017-11-24T03:29:15.860Z,992.47
2017-11-24T03:30:22.050Z,992.47
2017-11-24T03:31:28.969Z,992.43
2017-11-24T03:32:34.787Z,992.55
2017-11-24T03:33:41.482Z,992.49
2017-11-24T03:34:47.271Z,992.53
2017-11-24T03:35:53.664Z,992.61
2017-11-24T03:36:59.872Z,992.51
2017-11-24T03:38:06.183Z,992.46
2017-11-24T03:39:12.730Z,992.49
2017-11-24T03:40:18.886Z,992.59
2017-11-24T03:41:25.091Z,992.61
2017-11-24T03:42:31.497Z,992.72
2017-11-24T03:43:38.445Z,992.42
2017-11-24T03:44:44.515Z,992.34
2017-11-24T03:45:51.305Z,992.32
2017-11-24T03:46:57.123Z,992.25
2017-11-24T03:48:02.974Z,992.28
2017-11-24T03:49:09.233Z,992.20
2017-11-24T03:50:15.507Z,992.29
2017-11-24T03:51:21.829Z,992.44
2017-11-24T03:52:29.171Z,992.32
2017-11-24T03:53:35.035Z,992.34
2017-11-24T03:54:40.722Z,992.29
2017-11-24T03:55:47.006Z,992.30
2017-11-24T03:56:53.309Z,992.31
2017-11-24T03:57:59.609Z,992.37
2017-11-24T03:59:05.933Z,992.35
2017-11-24T04:00:12.337Z,992.40
2017-11-24T04:01:18.471Z,992.35
2017-11-24T04:02:24.784Z,992.41
2017-11-24T04:03:31.664Z,992.31
2017-11-24T04:04:37.386Z,992.24
2017-11-24T04:05:43.637Z,992.35
2017-11-24T04:06:49.935Z,992.23
2017-11-24T04:07:56.249Z,992.21
2017-11-24T04:09:02.531Z,992.15
2017-11-24T04:10:08.928Z,992.09
2017-11-24T04:11:15.085Z,991.98
2017-11-24T04:12:21.374Z,992.11
2017-11-24T04:13:27.719Z,991.94
2017-11-24T04:14:34.152Z,992.04
2017-11-24T04:15:40.396Z,992.07
2017-11-24T04:16:46.652Z,992.05
2017-11-24T04:17:52.838Z,992.04
2017-11-24T04:18:59.696Z,992.15
2017-11-24T04:20:05.395Z,992.10
2017-11-24T04:21:11.684Z,992.09
2017-11-24T04:22:18.061Z,992.16
2017-11-24T04:23:24.315Z,992.13
2017-11-24T04:24:30.554Z,992.09
2017-11-24T04:25:36.989Z,992.06
2017-11-24T04:26:43.199Z,992.05
2017-11-24T04:27:49.396Z,992.00
2017-11-24T04:28:56.221Z,991.96
2017-11-24T04:30:01.985Z,991.94
2017-11-24T04:31:08.261Z,992.02
2017-11-24T04:32:14.646Z,991.99
2017-11-24T04:33:20.845Z,992.11
2017-11-24T04:34:27.167Z,992.05
2017-11-24T04:35:33.425Z,992.06
2017-11-24T04:36:39.764Z,992.13
2017-11-24T04:37:45.994Z,991.97
2017-11-24T04:38:52.304Z,992.00
2017-11-24T04:39:58.573Z,992.00
2017-11-24T04:41:05.400Z,991.99
2017-11-24T04:42:11.161Z,991.91
2017-11-24T04:43:17.444Z,991.94
2017-11-24T04:44:24.549Z,991.93
2017-11-24T04:45:30.173Z,991.93
2017-11-24T04:46:36.316Z,991.98
2017-11-24T04:47:42.778Z,991.82
2017-11-24T04:48:49.485Z,991.88
2017-11-24T04:49:55.295Z,991.94
2017-11-24T04:51:01.987Z,991.91
2017-11-24T04:52:07.822Z,991.88
2017-11-24T04:53:14.160Z,992.06
2017-11-24T04:54:20.357Z,991.88
2017-11-24T04:55:26.617Z,991.89
2017-11-24T04:56:32.946Z,991.94
2017-11-24T04:57:39.209Z,992.00
2017-11-24T04:58:45.607Z,992.01
2017-11-24T04:59:52.393Z,992.02
2017-11-24T05:00:58.540Z,992.02
2017-11-24T05:02:04.934Z,992.13
2017-11-24T05:03:10.673Z,992.28
2017-11-24T05:04:17.537Z,992.29
2017-11-24T05:05:23.352Z,992.09
2017-11-24T05:06:29.497Z,992.01
2017-11-24T05:07:35.794Z,992.13
2017-11-24T05:08:42.596Z,992.19
2017-11-24T05:09:49.070Z,992.23
2017-11-24T05:10:55.655Z,992.15
2017-11-24T05:12:01.074Z,992.27
2017-11-24T05:13:07.352Z,992.23
2017-11-24T05:14:14.273Z,992.17
2017-11-24T05:15:19.858Z,992.17
2017-11-24T05:16:26.192Z,992.12
2017-11-24T05:17:32.376Z,992.02
2017-11-24T05:18:38.665Z,992.06
2017-11-24T05:19:45.523Z,992.07
2017-11-24T05:20:51.387Z,991.96
2017-11-24T05:21:57.662Z,991.94
2017-11-24T05:23:03.946Z,991.94
2017-11-24T05:24:10.124Z,992.01
2017-11-24T05:25:17.124Z,992.04
2017-11-24T05:26:22.777Z,992.13
2017-11-24T05:27:29.001Z,992.12
2017-11-24T05:28:35.324Z,992.11
2017-11-24T05:29:41.587Z,992.17
2017-11-24T05:30:48.501Z,992.16
2017-11-24T05:31:54.178Z,992.12
2017-11-24T05:33:00.409Z,992.11
2017-11-24T05:34:06.703Z,992.08
2017-11-24T05:35:12.998Z,992.08
2017-11-24T05:36:19.500Z,992.16
2017-11-24T05:37:26.214Z,992.20
2017-11-24T05:38:32.320Z,992.21
2017-11-24T05:39:38.176Z,992.21
2017-11-24T05:40:44.386Z,992.12
2017-11-24T05:41:50.759Z,992.18
2017-11-24T05:42:57.211Z,992.08
2017-11-24T05:44:03.459Z,992.03
2017-11-24T05:45:09.634Z,991.98
2017-11-24T05:46:16.333Z,992.00
2017-11-24T05:47:22.108Z,992.06
2017-11-24T05:48:28.999Z,992.20
2017-11-24T05:49:34.710Z,992.07
2017-11-24T05:50:41.270Z,992.04
2017-11-24T05:51:47.334Z,991.97
2017-11-24T05:52:53.560Z,992.01
2017-11-24T05:53:59.834Z,992.00
2017-11-24T05:55:06.131Z,992.04
2017-11-24T05:56:12.658Z,992.04
2017-11-24T05:57:18.671Z,992.04
2017-11-24T05:58:24.948Z,992.05
2017-11-24T05:59:31.604Z,991.96
2017-11-24T06:00:37.525Z,991.98
2017-11-24T06:01:43.884Z,991.93
2017-11-24T06:02:50.299Z,991.87
2017-11-24T06:03:56.943Z,991.74
2017-11-24T06:05:03.620Z,991.77
2017-11-24T06:06:09.477Z,991.81
2017-11-24T06:07:15.273Z,991.91
2017-11-24T06:08:22.399Z,991.94
2017-11-24T06:09:28.934Z,991.94
2017-11-24T06:10:34.084Z,992.03
2017-11-24T06:11:40.828Z,991.89
2017-11-24T06:12:46.653Z,991.96
2017-11-24T06:13:53.880Z,991.92
2017-11-24T06:15:00.123Z,991.89
2017-11-24T06:16:06.461Z,991.76
2017-11-24T06:17:11.755Z,991.85
2017-11-24T06:18:18.570Z,991.91
2017-11-24T06:19:24.840Z,991.91
2017-11-24T06:20:31.036Z,992.00
2017-11-24T06:21:37.332Z,991.98
2017-11-24T06:22:43.587Z,992.01
2017-11-24T06:23:50.039Z,991.89
2017-11-24T06:24:55.736Z,991.91
2017-11-24T06:26:02.433Z,991.88
2017-11-24T06:27:08.794Z,991.93
2017-11-24T06:28:15.047Z,991.89
2017-11-24T06:29:21.484Z,991.85
2017-11-24T06:30:27.565Z,991.92
2017-11-24T06:31:33.769Z,991.98
2017-11-24T06:32:39.754Z,991.88
2017-11-24T06:33:45.742Z,992.01
2017-11-24T06:34:52.085Z,992.14
2017-11-24T06:35:58.828Z,992.01
2017-11-24T06:37:05.068Z,992.28
2017-11-24T06:38:10.986Z,992.20
2017-11-24T06:39:17.599Z,992.24
2017-11-24T06:40:24.049Z,992.22
2017-11-24T06:41:29.567Z,992.23
2017-11-24T06:42:36.052Z,992.22
2017-11-24T06:43:42.459Z,992.17
2017-11-24T06:44:48.408Z,992.31
2017-11-24T06:45:54.805Z,992.37
2017-11-24T06:47:01.063Z,992.25
2017-11-24T06:48:07.189Z,992.25
2017-11-24T06:49:13.617Z,992.18
2017-11-24T06:50:20.196Z,992.06
2017-11-24T06:51:26.438Z,992.05
2017-11-24T06:52:32.831Z,992.13
2017-11-24T06:53:38.495Z,991.99
2017-11-24T06:54:44.912Z,991.89
2017-11-24T06:55:51.682Z,991.70
2017-11-24T06:56:57.436Z,991.67
2017-11-24T06:58:03.613Z,991.79
2017-11-24T06:59:09.818Z,991.85
2017-11-24T07:00:16.563Z,991.92
2017-11-24T07:01:22.367Z,991.95
2017-11-24T07:02:28.924Z,991.95
2017-11-24T07:03:34.927Z,991.91
2017-11-24T07:04:41.735Z,991.81
2017-11-24T07:05:47.902Z,991.87
2017-11-24T07:06:54.246Z,991.69
2017-11-24T07:07:59.907Z,991.74
2017-11-24T07:09:06.162Z,991.84
2017-11-24T07:10:13.192Z,991.81
2017-11-24T07:11:19.273Z,991.71
2017-11-24T07:12:24.969Z,991.66
2017-11-24T07:13:31.158Z,991.75
2017-11-24T07:14:37.925Z,991.67
2017-11-24T07:15:44.182Z,991.54
2017-11-24T07:16:50.434Z,991.84
2017-11-24T07:17:56.172Z,991.79
2017-11-24T07:19:02.579Z,991.86
2017-11-24T07:20:09.373Z,991.84
2017-11-24T07:21:15.106Z,991.75
2017-11-24T07:22:21.807Z,991.70
2017-11-24T07:23:27.895Z,991.79
2017-11-24T07:24:34.269Z,991.78
2017-11-24T07:25:40.833Z,991.83
2017-11-24T07:26:46.158Z,991.78
2017-11-24T07:27:52.957Z,991.93
2017-11-24T07:28:59.216Z,991.95
2017-11-24T07:30:05.540Z,992.03
2017-11-24T07:31:11.810Z,991.91
2017-11-24T07:32:18.033Z,991.94
2017-11-24T07:33:23.791Z,992.02
2017-11-24T07:34:30.046Z,991.88
2017-11-24T07:35:36.808Z,991.91
2017-11-24T07:36:42.660Z,991.99
2017-11-24T07:37:48.739Z,992.03
2017-11-24T07:38:54.914Z,991.94
2017-11-24T07:40:01.712Z,991.93
2017-11-24T07:41:07.507Z,992.00
2017-11-24T07:42:14.327Z,991.94
2017-11-24T07:43:20.584Z,992.04
2017-11-24T07:44:26.797Z,991.90
2017-11-24T07:45:32.502Z,992.00
2017-11-24T07:46:39.251Z,991.88
2017-11-24T07:47:45.541Z,991.90
2017-11-24T07:48:51.781Z,991.92
2017-11-24T07:49:57.530Z,991.91
2017-11-24T07:51:03.778Z,992.01
2017-11-24T07:52:10.626Z,991.97
2017-11-24T07:53:16.389Z,992.00
2017-11-24T07:54:22.642Z,991.92
2017-11-24T07:55:28.939Z,992.01
2017-11-24T07:56:35.684Z,991.96
2017-11-24T07:57:41.918Z,992.08
2017-11-24T07:58:48.235Z,991.99
2017-11-24T07:59:54.422Z,991.90
2017-11-24T08:01:00.865Z,991.98
2017-11-24T08:02:07.215Z,992.10
2017-11-24T08:03:12.766Z,992.05
2017-11-24T08:04:19.027Z,991.98
2017-11-24T08:05:25.864Z,991.95
2017-11-24T08:06:31.527Z,991.96
2017-11-24T08:07:38.037Z,991.95
2017-11-24T08:08:44.032Z,991.89
2017-11-24T08:09:50.303Z,991.86
2017-11-24T08:10:56.689Z,991.85
2017-11-24T08:12:02.917Z,991.93
2017-11-24T08:13:09.735Z,992.07
2017-11-24T08:14:15.382Z,992.05
2017-11-24T08:15:22.257Z,992.21
2017-11-24T08:16:28.450Z,992.22
2017-11-24T08:17:34.286Z,992.24
2017-11-24T08:18:41.107Z,992.02
2017-11-24T08:19:47.435Z,991.94
2017-11-24T08:20:53.038Z,992.00
2017-11-24T08:21:59.846Z,992.07
2017-11-24T08:23:06.145Z,992.07
2017-11-24T08:24:11.970Z,992.03
2017-11-24T08:25:18.733Z,992.21
2017-11-24T08:26:24.473Z,992.22
2017-11-24T08:27:30.686Z,992.13
2017-11-24T08:28:37.013Z,992.15
2017-11-24T08:29:43.262Z,992.17
2017-11-24T08:30:50.105Z,992.35
2017-11-24T08:31:56.301Z,992.38
2017-11-24T08:33:02.568Z,992.30
2017-11-24T08:34:08.397Z,992.18
2017-11-24T08:35:15.143Z,992.17
2017-11-24T08:36:21.471Z,992.12
2017-11-24T08:37:27.497Z,992.05
2017-11-24T08:38:33.474Z,992.08
2017-11-24T08:39:40.283Z,992.05
2017-11-24T08:40:46.516Z,992.08
2017-11-24T08:41:52.435Z,992.13
2017-11-24T08:42:59.141Z,992.05
2017-11-24T08:44:05.970Z,992.09
2017-11-24T08:45:11.810Z,992.21
2017-11-24T08:46:18.017Z,992.26
2017-11-24T08:47:24.285Z,992.13
2017-11-24T08:48:30.629Z,992.00
2017-11-24T08:49:36.634Z,992.10
2017-11-24T08:50:43.215Z,992.12
2017-11-24T08:51:49.534Z,992.30
2017-11-24T08:52:55.270Z,992.15
2017-11-24T08:54:02.147Z,992.02
2017-11-24T08:55:08.425Z,992.06
2017-11-24T08:56:14.684Z,991.98
2017-11-24T08:57:20.484Z,991.89
2017-11-24T08:59:33.116Z,992.07
2017-11-24T09:00:39.580Z,992.13
2017-11-24T09:01:47.424Z,992.06
2017-11-24T09:02:52.805Z,992.09
2017-11-24T09:03:58.984Z,992.16
2017-11-24T09:05:05.320Z,992.03
2017-11-24T09:06:11.585Z,992.00
2017-11-24T09:07:17.422Z,991.94
2017-11-24T09:08:24.289Z,992.02
2017-11-24T09:09:30.082Z,991.97
2017-11-24T09:10:36.962Z,991.97
2017-11-24T09:11:42.826Z,991.99
2017-11-24T09:12:49.072Z,991.95
2017-11-24T09:13:55.878Z,991.89
2017-11-24T09:15:01.789Z,991.90
2017-11-24T09:16:08.098Z,991.90
2017-11-24T09:17:14.301Z,991.90
2017-11-24T09:18:20.750Z,991.73
2017-11-24T09:19:27.337Z,991.64
2017-11-24T09:21:39.744Z,991.71
2017-11-24T09:22:46.774Z,991.70
2017-11-24T09:23:53.471Z,991.71
2017-11-24T09:24:59.839Z,991.82
2017-11-24T09:26:05.578Z,991.89
2017-11-24T09:27:11.353Z,992.04
2017-11-24T09:28:18.212Z,992.01
2017-11-24T09:29:24.707Z,991.99
2017-11-24T09:30:30.974Z,991.99
2017-11-24T09:31:38.444Z,991.83
2017-11-24T09:32:43.685Z,991.94
2017-11-24T09:34:56.340Z,992.08
2017-11-24T09:36:02.767Z,992.19
2017-11-24T09:37:08.992Z,992.15
2017-11-24T09:38:14.862Z,992.22
2017-11-24T09:39:22.262Z,992.23
2017-11-24T09:40:29.204Z,992.29
2017-11-24T09:41:34.530Z,992.26
2017-11-24T09:42:40.871Z,992.33
2017-11-24T09:43:46.787Z,992.42
2017-11-24T09:44:53.174Z,992.33
2017-11-24T09:46:00.058Z,992.28
2017-11-24T09:47:06.350Z,992.37
2017-11-24T09:48:12.769Z,992.36
2017-11-24T09:49:19.236Z,992.37
2017-11-24T09:50:25.458Z,992.42
2017-11-24T09:51:32.042Z,992.42
2017-11-24T09:52:38.128Z,992.31
2017-11-24T09:53:43.946Z,992.23
2017-11-24T09:54:50.340Z,992.26
2017-11-24T09:55:56.855Z,992.34
2017-11-24T09:57:03.068Z,992.23
2017-11-24T09:58:09.573Z,992.22
2017-11-24T09:59:16.447Z,992.16
2017-11-24T10:00:22.725Z,992.28
2017-11-24T10:01:28.558Z,992.29
2017-11-24T10:02:35.600Z,992.30
2017-11-24T10:03:41.448Z,992.26
2017-11-24T10:04:47.754Z,992.12
2017-11-24T10:05:54.642Z,992.12
2017-11-24T10:07:01.058Z,992.13
2017-11-24T10:08:07.337Z,992.37
2017-11-24T10:09:13.222Z,992.29
2017-11-24T10:10:19.636Z,992.21
2017-11-24T10:11:26.481Z,992.22
2017-11-24T10:12:32.435Z,992.05
2017-11-24T10:13:39.366Z,992.22
2017-11-24T10:14:45.147Z,992.33
2017-11-24T10:15:52.370Z,992.27
2017-11-24T10:16:58.541Z,992.22
2017-11-24T10:18:04.995Z,992.15
2017-11-24T10:19:11.352Z,992.14
2017-11-24T10:20:17.816Z,992.13
2017-11-24T10:21:23.461Z,992.24
2017-11-24T10:22:30.462Z,992.20
2017-11-24T10:23:36.878Z,992.19
2017-11-24T10:24:42.677Z,992.21
2017-11-24T10:25:49.549Z,992.05
2017-11-24T10:26:55.975Z,992.15
2017-11-24T10:28:02.312Z,991.98
2017-11-24T10:29:08.792Z,991.95
2017-11-24T10:30:15.429Z,992.06
2017-11-24T10:31:21.506Z,992.11
2017-11-24T10:32:28.035Z,992.17
2017-11-24T10:33:34.798Z,992.12
2017-11-24T10:34:40.674Z,992.14
2017-11-24T10:35:46.569Z,992.14
2017-11-24T10:36:52.938Z,992.03
2017-11-24T10:37:59.883Z,992.12
2017-11-24T10:39:05.863Z,992.11
2017-11-24T10:40:12.176Z,992.10
2017-11-24T10:41:19.290Z,992.13
2017-11-24T10:42:25.322Z,992.02
2017-11-24T10:43:31.903Z,992.10
2017-11-24T10:44:38.357Z,992.13
2017-11-24T10:45:44.896Z,992.07
2017-11-24T10:46:50.997Z,992.10
2017-11-24T10:47:57.530Z,992.19
2017-11-24T10:49:03.260Z,992.16
2017-11-24T10:50:10.194Z,992.23
2017-11-24T10:51:16.191Z,992.33
2017-11-24T10:52:23.056Z,992.29
2017-11-24T10:53:28.928Z,992.17
2017-11-24T10:55:43.212Z,992.24
2017-11-24T10:56:48.159Z,992.33
2017-11-24T10:57:54.981Z,992.17
2017-11-24T10:59:01.397Z,992.27
2017-11-24T11:00:07.343Z,992.29
2017-11-24T11:01:13.593Z,992.40
2017-11-24T11:02:19.965Z,992.31
2017-11-24T11:03:26.532Z,992.32
2017-11-24T11:04:33.314Z,992.52
2017-11-24T11:05:39.477Z,992.49
2017-11-24T11:06:45.514Z,992.25
2017-11-24T11:07:51.871Z,992.25
2017-11-24T11:08:58.270Z,992.08
2017-11-24T11:10:04.739Z,992.11
2017-11-24T11:11:11.154Z,992.07
2017-11-24T11:12:17.905Z,992.09
2017-11-24T11:13:23.849Z,992.11
2017-11-24T11:14:30.189Z,992.15
2017-11-24T11:15:36.591Z,992.10
2017-11-24T11:16:43.534Z,992.19
2017-11-24T11:17:49.383Z,992.15
2017-11-24T11:18:55.832Z,992.11
2017-11-24T11:20:02.702Z,992.29
2017-11-24T11:21:08.572Z,992.32
2017-11-24T11:22:14.937Z,992.37
2017-11-24T11:23:21.333Z,992.23
2017-11-24T11:24:27.834Z,992.20
2017-11-24T11:25:34.161Z,992.29
2017-11-24T11:26:40.530Z,992.22
2017-11-24T11:27:46.916Z,992.08
2017-11-24T11:28:53.858Z,992.23
2017-11-24T11:29:59.801Z,992.26
2017-11-24T11:31:06.119Z,992.32
2017-11-24T11:32:12.557Z,992.33
2017-11-24T11:33:19.457Z,992.45
2017-11-24T11:34:25.262Z,992.42
2017-11-24T11:35:31.673Z,992.31
2017-11-24T11:36:38.577Z,992.31
2017-11-24T11:37:44.401Z,992.32
2017-11-24T11:38:50.759Z,992.16
2017-11-24T11:39:57.217Z,992.21
2017-11-24T11:41:03.583Z,992.27
2017-11-24T11:42:09.870Z,992.30
2017-11-24T11:43:16.793Z,992.38
2017-11-24T11:44:22.609Z,992.35
2017-11-24T11:45:29.019Z,992.32
2017-11-24T11:46:35.353Z,992.27
2017-11-24T11:47:41.880Z,992.31
2017-11-24T11:48:48.582Z,992.24
2017-11-24T11:49:54.444Z,992.19
2017-11-24T11:51:00.888Z,992.27
2017-11-24T11:52:07.165Z,992.33
2017-11-24T11:53:13.660Z,992.22
2017-11-24T11:54:19.878Z,992.22
2017-11-24T11:55:27.286Z,992.33
2017-11-24T11:56:32.730Z,992.22
2017-11-24T11:57:39.082Z,992.21
2017-11-24T11:58:45.439Z,992.20
2017-11-24T11:59:51.684Z,992.22
2017-11-24T12:00:58.257Z,992.24
2017-11-24T12:02:04.508Z,992.33
2017-11-24T12:03:10.871Z,992.26
2017-11-24T12:04:17.117Z,992.21
2017-11-24T12:05:24.048Z,992.21
2017-11-24T12:06:29.885Z,992.25
2017-11-24T12:07:36.215Z,992.19
2017-11-24T12:08:42.672Z,992.22
2017-11-24T12:09:48.953Z,992.24
2017-11-24T12:10:55.325Z,992.33
2017-11-24T12:12:02.184Z,992.28
2017-11-24T12:13:08.682Z,992.34
2017-11-24T12:14:14.420Z,992.27
2017-11-24T12:15:20.757Z,992.29
2017-11-24T12:16:27.933Z,992.18
2017-11-24T12:17:33.524Z,992.27
2017-11-24T12:18:39.849Z,992.25
2017-11-24T12:19:46.205Z,992.21
2017-11-24T12:20:52.586Z,992.31
2017-11-24T12:21:59.525Z,992.26
2017-11-24T12:23:05.312Z,992.35
2017-11-24T12:24:11.658Z,992.39
2017-11-24T12:25:18.600Z,992.33
2017-11-24T12:26:24.897Z,992.39
2017-11-24T12:27:30.733Z,992.33
2017-11-24T12:28:37.256Z,992.28
2017-11-24T12:29:43.617Z,992.30
2017-11-24T12:30:49.937Z,992.25
2017-11-24T12:31:56.668Z,992.31
2017-11-24T12:33:02.606Z,992.38
2017-11-24T12:34:08.967Z,992.33
2017-11-24T12:35:15.233Z,992.31
2017-11-24T12:36:21.607Z,992.34
2017-11-24T12:37:28.040Z,992.36
2017-11-24T12:38:34.299Z,992.29
2017-11-24T12:39:41.326Z,992.37
2017-11-24T12:40:47.035Z,992.22
2017-11-24T12:41:53.527Z,992.30
2017-11-24T12:42:59.723Z,992.26
2017-11-24T12:44:06.074Z,992.30
2017-11-24T12:45:12.933Z,992.22
2017-11-24T12:46:18.807Z,992.30
2017-11-24T12:47:25.234Z,992.23
2017-11-24T12:48:31.498Z,992.30
2017-11-24T12:49:38.884Z,992.34
2017-11-24T12:50:44.238Z,992.30
2017-11-24T12:51:50.630Z,992.49
2017-11-24T12:52:56.931Z,992.58
2017-11-24T12:54:03.855Z,992.57
2017-11-24T12:55:10.137Z,992.62
2017-11-24T12:56:16.016Z,992.61
2017-11-24T12:57:22.299Z,992.72
2017-11-24T12:58:28.767Z,992.69
2017-11-24T12:59:35.581Z,992.69
2017-11-24T13:00:41.431Z,992.86
2017-11-24T13:01:48.176Z,992.78
2017-11-24T13:02:54.025Z,992.74
2017-11-24T13:04:00.370Z,992.90
2017-11-24T13:05:06.933Z,992.84
2017-11-24T13:06:13.792Z,992.91
2017-11-24T13:07:20.379Z,992.91
2017-11-24T13:08:25.808Z,992.94
2017-11-24T13:09:32.123Z,992.82
2017-11-24T13:10:38.934Z,992.85
2017-11-24T13:11:44.685Z,992.80
2017-11-24T13:12:51.558Z,992.78
2017-11-24T13:13:57.923Z,992.81
2017-11-24T13:15:03.820Z,992.88
2017-11-24T13:16:10.537Z,992.83
2017-11-24T13:17:16.335Z,992.95
2017-11-24T13:18:22.719Z,992.90
2017-11-24T13:19:29.420Z,992.85
2017-11-24T13:20:35.926Z,992.84
2017-11-24T13:21:42.113Z,992.85
2017-11-24T13:22:48.383Z,992.88
2017-11-24T13:23:55.704Z,992.90
2017-11-24T13:25:01.116Z,992.97
2017-11-24T13:26:06.937Z,993.04
2017-11-24T13:27:13.287Z,992.97
2017-11-24T13:28:20.090Z,993.01
2017-11-24T13:29:26.358Z,992.99
2017-11-24T13:30:32.608Z,993.01
2017-11-24T13:31:39.056Z,992.96
2017-11-24T13:32:44.881Z,992.88
2017-11-24T13:33:51.063Z,992.94
2017-11-24T13:34:57.380Z,992.92
2017-11-24T13:36:06.090Z,993.02
2017-11-24T13:37:10.193Z,993.02
2017-11-24T13:38:16.314Z,993.05
2017-11-24T13:39:22.643Z,993.07
2017-11-24T13:40:28.951Z,993.12
2017-11-24T13:41:35.271Z,993.13
2017-11-24T13:42:41.503Z,993.09
2017-11-24T13:43:47.976Z,993.10
2017-11-24T13:44:54.798Z,993.21
2017-11-24T13:46:00.516Z,993.23
2017-11-24T13:47:07.239Z,993.27
2017-11-24T13:48:13.663Z,993.23
2017-11-24T13:49:19.338Z,993.33
2017-11-24T13:50:26.313Z,993.31
2017-11-24T13:51:31.972Z,993.26